Time;durP1;ratioP1;P1;durP2;ratioP2;P2;SDS_P1;SDS_P2;PMS_P1;PMS_P2;Temp;Humidity;BMP_temperature;BMP_pressure;BME280_temperature;BME280_humidity;BME280_pressure;Samples;Min_cycle;Max_cycle;Signal;HPM_P1;HPM_P2
2023/10/01 00:00:22;;;;;;;0.00;0.00;;;;;;;;;;5018140;28;20223;-52
2023/10/01 00:02:51;;;;;;;0.00;0.00;;;;;;;;;;5020145;28;20497;-50
2023/10/01 00:05:17;;;;;;;0.00;0.00;;;;;;;;;;5018175;28;20041;-55
2023/10/01 00:07:43;;;;;;;0.00;0.00;;;;;;;;;;5020333;28;20025;-53
2023/10/01 00:10:13;;;;;;;0.00;0.00;;;;;;;;;;5020622;28;20053;-54
2023/10/01 00:12:40;;;;;;;0.00;0.00;;;;;;;;;;5034469;28;20152;-54
2023/10/01 00:15:11;;;;;;;0.00;0.00;;;;;;;;;;5016668;28;20046;-53
2023/10/01 00:17:38;;;;;;;0.00;0.00;;;;;;;;;;5018200;28;20527;-54
2023/10/01 00:20:09;;;;;;;0.00;0.00;;;;;;;;;;5016181;28;20774;-54
2023/10/01 00:22:37;;;;;;;0.00;0.00;;;;;;;;;;5021796;28;20397;-53
2023/10/01 00:25:04;;;;;;;0.00;0.00;;;;;;;;;;5015970;28;20064;-53
2023/10/01 00:27:30;;;;;;;0.00;0.00;;;;;;;;;;5019723;28;20056;-53
2023/10/01 00:29:57;;;;;;;0.00;0.00;;;;;;;;;;5018078;28;20058;-53
2023/10/01 00:32:23;;;;;;;0.00;0.00;;;;;;;;;;5016026;28;20036;-53
2023/10/01 00:34:49;;;;;;;0.00;0.00;;;;;;;;;;5020326;28;20421;-53
2023/10/01 00:37:15;;;;;;;0.00;0.00;;;;;;;;;;5017267;28;20029;-53
2023/10/01 00:39:41;;;;;;;0.00;0.00;;;;;;;;;;5019927;28;20069;-52
2023/10/01 00:42:07;;;;;;;0.00;0.00;;;;;;;;;;5017864;28;20227;-53
2023/10/01 00:44:36;;;;;;;0.00;0.00;;;;;;;;;;5019189;28;20103;-53
2023/10/01 00:47:05;;;;;;;0.00;0.00;;;;;;;;;;5018666;28;20038;-53
2023/10/01 00:49:34;;;;;;;0.00;0.00;;;;;;;;;;5016022;28;20087;-53
2023/10/01 00:52:00;;;;;;;0.00;0.00;;;;;;;;;;5018840;28;20691;-54
2023/10/01 00:54:26;;;;;;;0.00;0.00;;;;;;;;;;5015637;28;20898;-53
2023/10/01 00:56:53;;;;;;;0.00;0.00;;;;;;;;;;5019432;28;20533;-54
2023/10/01 00:59:19;;;;;;;0.00;0.00;;;;;;;;;;5017718;28;20057;-53
2023/10/01 01:01:46;;;;;;;0.00;0.00;;;;;;;;;;5017526;28;20349;-54
2023/10/01 01:04:19;;;;;;;0.00;0.00;;;;;;;;;;5019447;28;20385;-53
2023/10/01 01:06:47;;;;;;;0.00;0.00;;;;;;;;;;5018171;28;20577;-53
2023/10/01 01:09:15;;;;;;;0.00;0.00;;;;;;;;;;5014220;28;20064;-54
2023/10/01 01:11:41;;;;;;;0.00;0.00;;;;;;;;;;5019853;28;20081;-53
2023/10/01 01:14:07;;;;;;;6.38;4.43;;;;;;;;;;5000014;28;20037;-53
2023/10/01 01:16:34;;;;;;;0.00;0.00;;;;;;;;;;4993588;28;20080;-53
2023/10/01 01:19:01;;;;;;;0.00;0.00;;;;;;;;;;5012176;28;20513;-53
2023/10/01 01:21:27;;;;;;;0.00;0.00;;;;;;;;;;5014982;28;20368;-53
2023/10/01 01:23:53;;;;;;;23.10;13.57;;;;;;;;;;5019614;28;20665;-53
2023/10/01 01:26:22;;;;;;;22.95;14.48;;;;;;;;;;5017019;28;20083;-53
2023/10/01 01:28:49;;;;;;;24.83;15.20;;;;;;;;;;5021023;28;20051;-53
2023/10/01 01:31:16;;;;;;;24.67;14.82;;;;;;;;;;5021027;28;20065;-53
2023/10/01 01:33:52;;;;;;;23.55;15.25;;;;;;;;;;5022490;28;20140;-53
2023/10/01 01:36:19;;;;;;;26.85;14.32;;;;;;;;;;5021704;28;20260;-53
2023/10/01 01:39:09;;;;;;;23.63;14.30;;;;;;;;;;5008558;28;20226;-54
2023/10/01 01:41:42;;;;;;;25.65;14.52;;;;;;;;;;5005416;28;20038;-53
2023/10/01 01:44:08;;;;;;;22.77;14.02;;;;;;;;;;5003847;28;20555;-53
2023/10/01 01:46:34;;;;;;;21.83;13.57;;;;;;;;;;5004495;28;20096;-53
2023/10/01 01:49:00;;;;;;;21.88;13.43;;;;;;;;;;5002637;28;20033;-53
2023/10/01 01:51:29;;;;;;;23.40;13.40;;;;;;;;;;5006885;28;20415;-54
2023/10/01 01:53:56;;;;;;;24.00;13.35;;;;;;;;;;5002653;28;20084;-53
2023/10/01 01:56:22;;;;;;;26.75;13.88;;;;;;;;;;4998986;28;20081;-53
2023/10/01 01:58:49;;;;;;;24.63;13.68;;;;;;;;;;5001750;28;20107;-53
2023/10/01 02:01:22;;;;;;;23.20;14.13;;;;;;;;;;5000422;28;20508;-53
2023/10/01 02:03:51;;;;;;;24.13;14.63;;;;;;;;;;5001737;28;20469;-53
2023/10/01 02:06:27;;;;;;;26.13;13.88;;;;;;;;;;5000592;28;20124;-53
2023/10/01 02:11:20;;;;;;;24.60;14.73;;;;;;;;;;5021879;28;20116;-54
2023/10/01 02:13:50;;;;;;;23.48;13.60;;;;;;;;;;5022902;28;20045;-53
2023/10/01 02:18:56;;;;;;;22.08;14.55;;;;;;;;;;5022722;28;20127;-53
2023/10/01 02:21:43;;;;;;;25.65;14.02;;;;;;;;;;5021478;28;20052;-53
2023/10/01 02:24:56;;;;;;;25.92;14.75;;;;;;;;;;5020213;28;20609;-54
2023/10/01 02:27:04;;;;;;;24.43;14.13;;;;;;;;;;5011502;28;20405;-54
2023/10/01 02:29:32;;;;;;;21.08;13.35;;;;;;;;;;5021165;28;20037;-54
2023/10/01 02:32:04;;;;;;;22.33;13.38;;;;;;;;;;5019704;28;20036;-54
2023/10/01 02:34:31;;;;;;;20.30;13.52;;;;;;;;;;5019892;28;20658;-53
2023/10/01 02:36:58;;;;;;;21.70;12.93;;;;;;;;;;5019889;28;20127;-53
2023/10/01 02:39:27;;;;;;;21.10;12.55;;;;;;;;;;5020892;28;20607;-53
2023/10/01 02:44:32;;;;;;;24.88;13.57;;;;;;;;;;5019431;28;20029;-48
2023/10/01 02:47:02;;;;;;;22.00;13.35;;;;;;;;;;5013022;28;20032;-50
2023/10/01 02:49:32;;;;;;;20.42;13.25;;;;;;;;;;5021115;28;20444;-51
2023/10/01 02:51:59;;;;;;;24.42;13.57;;;;;;;;;;5021902;28;20037;-48
2023/10/01 02:54:28;;;;;;;21.35;12.57;;;;;;;;;;5019710;28;20099;-49
2023/10/01 02:57:12;;;;;;;20.25;12.85;;;;;;;;;;5018170;28;20654;-50
2023/10/01 02:59:38;;;;;;;20.95;12.38;;;;;;;;;;5017049;28;20381;-49
2023/10/01 03:02:08;;;;;;;18.67;12.85;;;;;;;;;;5019425;28;20034;-52
2023/10/01 03:04:34;;;;;;;23.40;12.18;;;;;;;;;;5020694;28;20559;-51
2023/10/01 03:07:05;;;;;;;18.77;12.15;;;;;;;;;;5019867;28;20143;-52
2023/10/01 03:09:34;;;;;;;23.58;13.18;;;;;;;;;;5019993;28;20585;-52
2023/10/01 03:15:00;;;;;;;25.65;13.75;;;;;;;;;;5004889;28;20382;-52
2023/10/01 03:17:39;;;;;;;20.05;12.73;;;;;;;;;;5002226;28;20442;-52
2023/10/01 03:23:01;;;;;;;24.33;12.63;;;;;;;;;;4990690;28;20710;-53
2023/10/01 03:25:30;;;;;;;23.75;12.73;;;;;;;;;;5017560;28;20049;-52
2023/10/01 03:27:59;;;;;;;18.92;11.30;;;;;;;;;;5017684;28;20042;-54
2023/10/01 03:30:32;;;;;;;19.33;11.40;;;;;;;;;;5018662;28;20044;-52
2023/10/01 03:33:07;;;;;;;17.55;10.85;;;;;;;;;;5018712;28;20045;-51
2023/10/01 03:35:34;;;;;;;16.45;10.85;;;;;;;;;;5021037;28;20041;-54
2023/10/01 03:38:09;;;;;;;16.90;10.65;;;;;;;;;;5021173;28;20128;-52
2023/10/01 03:43:37;;;;;;;16.10;10.90;;;;;;;;;;4993871;28;20123;-53
2023/10/01 03:46:14;;;;;;;18.63;10.30;;;;;;;;;;5017069;28;20473;-51
2023/10/01 03:48:59;;;;;;;17.42;11.20;;;;;;;;;;5019311;28;20039;-51
2023/10/01 03:51:29;;;;;;;16.58;10.55;;;;;;;;;;5019119;28;20053;-49
2023/10/01 03:54:06;;;;;;;17.88;10.30;;;;;;;;;;5019819;28;20805;-51
2023/10/01 03:56:36;;;;;;;15.88;11.20;;;;;;;;;;5018050;28;20068;-50
2023/10/01 03:59:15;;;;;;;18.25;11.32;;;;;;;;;;5017708;28;20052;-51
2023/10/01 04:01:58;;;;;;;24.50;11.65;;;;;;;;;;5020140;28;20512;-54
2023/10/01 04:04:27;;;;;;;18.40;11.23;;;;;;;;;;5021022;28;20033;-52
2023/10/01 04:06:54;;;;;;;20.45;10.60;;;;;;;;;;5019063;28;20433;-53
2023/10/01 04:09:26;;;;;;;19.98;11.15;;;;;;;;;;5020010;28;20642;-53
2023/10/01 04:11:52;;;;;;;20.75;10.80;;;;;;;;;;5020987;28;20096;-53
2023/10/01 04:14:18;;;;;;;20.80;10.70;;;;;;;;;;5018609;28;20117;-53
2023/10/01 04:16:48;;;;;;;20.20;10.25;;;;;;;;;;5021068;28;20045;-54
2023/10/01 04:19:24;;;;;;;22.80;10.48;;;;;;;;;;5017732;28;20396;-53
2023/10/01 04:21:50;;;;;;;18.83;10.15;;;;;;;;;;5022269;28;20149;-52
2023/10/01 04:24:19;;;;;;;16.70;9.88;;;;;;;;;;5001094;28;20508;-54
2023/10/01 04:26:46;;;;;;;18.00;10.18;;;;;;;;;;5000756;28;20402;-52
2023/10/01 04:29:16;;;;;;;19.45;10.63;;;;;;;;;;4997828;28;20663;-54
2023/10/01 04:31:42;;;;;;;18.33;9.88;;;;;;;;;;4997676;28;20034;-53
2023/10/01 04:34:12;;;;;;;18.88;9.90;;;;;;;;;;4999031;28;20026;-51
2023/10/01 04:36:50;;;;;;;17.33;9.05;;;;;;;;;;4998386;28;20509;-53
2023/10/01 04:39:17;;;;;;;17.65;9.85;;;;;;;;;;4997227;28;20046;-53
2023/10/01 04:41:43;;;;;;;20.77;10.60;;;;;;;;;;4999724;28;20041;-52
2023/10/01 04:44:13;;;;;;;18.30;9.25;;;;;;;;;;4997254;28;20033;-53
2023/10/01 04:46:40;;;;;;;16.80;9.43;;;;;;;;;;4995983;28;20045;-53
2023/10/01 04:49:26;;;;;;;14.90;8.27;;;;;;;;;;4998221;28;20402;-53
2023/10/01 04:51:55;;;;;;;20.27;9.40;;;;;;;;;;4994503;28;20049;-54
2023/10/01 04:54:21;;;;;;;15.02;8.38;;;;;;;;;;4992484;28;20370;-53
2023/10/01 04:56:48;;;;;;;17.27;8.60;;;;;;;;;;4996700;28;20052;-53
2023/10/01 04:59:18;;;;;;;14.23;7.97;;;;;;;;;;4992886;28;20049;-54
2023/10/01 05:01:47;;;;;;;20.13;9.13;;;;;;;;;;4994775;28;20042;-54
2023/10/01 05:04:14;;;;;;;15.23;8.23;;;;;;;;;;4990713;28;20037;-53
2023/10/01 05:06:43;;;;;;;16.67;8.82;;;;;;;;;;4996752;28;20057;-53
2023/10/01 05:09:09;;;;;;;19.30;9.38;;;;;;;;;;4994171;28;20081;-54
2023/10/01 05:11:36;;;;;;;19.33;9.45;;;;;;;;;;4992909;28;20041;-53
2023/10/01 05:14:04;;;;;;;21.25;9.23;;;;;;;;;;4992670;28;20046;-52
2023/10/01 05:16:38;;;;;;;17.77;8.93;;;;;;;;;;4993908;28;20409;-53
2023/10/01 05:19:10;;;;;;;17.65;9.00;;;;;;;;;;4996883;28;20044;-53
2023/10/01 05:21:49;;;;;;;16.05;8.82;;;;;;;;;;4993770;28;20653;-53
2023/10/01 05:24:34;;;;;;;16.33;8.25;;;;;;;;;;4996390;28;20049;-53
2023/10/01 05:27:00;;;;;;;15.70;8.73;;;;;;;;;;4997898;28;20402;-54
2023/10/01 05:29:28;;;;;;;16.83;9.00;;;;;;;;;;5015492;28;20448;-53
2023/10/01 05:31:55;;;;;;;19.55;8.90;;;;;;;;;;5001241;28;20477;-54
2023/10/01 05:34:22;;;;;;;17.23;9.20;;;;;;;;;;4995057;28;20034;-53
2023/10/01 05:36:52;;;;;;;17.33;8.45;;;;;;;;;;4998364;28;20560;-52
2023/10/01 05:39:20;;;;;;;20.23;9.68;;;;;;;;;;4996455;28;20030;-53
2023/10/01 05:41:46;;;;;;;14.88;8.63;;;;;;;;;;4999112;28;20080;-53
2023/10/01 05:44:12;;;;;;;16.13;9.15;;;;;;;;;;4996146;28;20037;-50
2023/10/01 05:46:40;;;;;;;16.08;9.65;;;;;;;;;;4998167;28;20083;-52
2023/10/01 05:49:08;;;;;;;16.23;8.48;;;;;;;;;;4997257;28;20137;-48
2023/10/01 05:51:45;;;;;;;17.35;9.40;;;;;;;;;;4995977;28;20092;-54
2023/10/01 05:54:12;;;;;;;15.70;9.35;;;;;;;;;;4998129;28;20049;-51
2023/10/01 05:56:43;;;;;;;18.00;9.57;;;;;;;;;;4997315;28;20080;-52
2023/10/01 05:59:12;;;;;;;21.35;10.40;;;;;;;;;;4996319;28;20042;-52
2023/10/01 06:01:39;;;;;;;19.88;9.70;;;;;;;;;;5001410;28;20128;-52
2023/10/01 06:04:12;;;;;;;19.20;10.52;;;;;;;;;;5016932;28;20508;-52
2023/10/01 06:06:42;;;;;;;20.20;10.43;;;;;;;;;;5015318;28;20025;-51
2023/10/01 06:09:09;;;;;;;26.48;11.18;;;;;;;;;;5016117;28;20029;-52
2023/10/01 06:11:38;;;;;;;20.58;10.02;;;;;;;;;;5017954;28;20078;-52
2023/10/01 06:14:07;;;;;;;16.33;10.05;;;;;;;;;;5013644;28;20116;-48
2023/10/01 06:16:40;;;;;;;22.35;10.70;;;;;;;;;;5021723;28;20061;-52
2023/10/01 06:19:11;;;;;;;20.42;10.50;;;;;;;;;;5018587;28;20033;-52
2023/10/01 06:21:39;;;;;;;22.95;11.15;;;;;;;;;;5003603;28;20041;-49
2023/10/01 06:24:07;;;;;;;22.17;11.10;;;;;;;;;;4996423;28;20473;-49
2023/10/01 06:26:36;;;;;;;21.70;10.95;;;;;;;;;;5001190;28;20144;-51
2023/10/01 06:29:07;;;;;;;18.52;10.07;;;;;;;;;;5000606;28;20034;-50
2023/10/01 06:31:51;;;;;;;18.75;10.43;;;;;;;;;;4999581;28;20043;-47
2023/10/01 06:34:21;;;;;;;22.00;11.18;;;;;;;;;;4998429;28;20343;-50
2023/10/01 06:36:58;;;;;;;20.75;10.32;;;;;;;;;;5001265;28;20050;-48
2023/10/01 06:39:28;;;;;;;19.80;10.18;;;;;;;;;;4998147;28;20490;-47
2023/10/01 06:41:54;;;;;;;17.30;10.43;;;;;;;;;;4999944;28;20034;-51
2023/10/01 06:44:21;;;;;;;16.70;10.13;;;;;;;;;;5000401;28;20508;-53
2023/10/01 06:46:48;;;;;;;19.48;9.93;;;;;;;;;;4999906;28;20418;-53
2023/10/01 06:49:18;;;;;;;22.02;11.02;;;;;;;;;;4998231;28;20034;-53
2023/10/01 06:51:45;;;;;;;27.27;10.82;;;;;;;;;;4999489;28;20502;-53
2023/10/01 06:54:14;;;;;;;21.50;10.13;;;;;;;;;;4996639;28;20574;-54
2023/10/01 06:56:47;;;;;;;21.67;10.65;;;;;;;;;;4998968;28;20037;-54
2023/10/01 06:59:14;;;;;;;22.10;10.25;;;;;;;;;;4999080;28;20544;-52
2023/10/01 07:01:50;;;;;;;21.90;9.75;;;;;;;;;;5018560;28;20075;-53
2023/10/01 07:04:23;;;;;;;20.60;10.02;;;;;;;;;;5018588;28;20945;-53
2023/10/01 07:06:53;;;;;;;20.30;9.98;;;;;;;;;;5017265;28;20137;-53
2023/10/01 07:09:32;;;;;;;22.67;9.68;;;;;;;;;;5008021;28;20073;-52
2023/10/01 07:11:59;;;;;;;19.25;10.10;;;;;;;;;;5017596;28;20116;-53
2023/10/01 07:14:44;;;;;;;19.67;9.80;;;;;;;;;;5018529;28;20624;-53
2023/10/01 07:17:13;;;;;;;21.42;9.80;;;;;;;;;;5019154;28;20091;-53
2023/10/01 07:19:40;;;;;;;11.38;8.18;;;;;;;;;;5019060;28;20481;-52
2023/10/01 07:22:06;;;;;;;18.42;9.88;;;;;;;;;;5017917;28;20037;-52
2023/10/01 07:24:33;;;;;;;18.38;8.57;;;;;;;;;;5010315;28;20103;-53
2023/10/01 07:27:06;;;;;;;22.02;9.50;;;;;;;;;;5029394;28;20052;-52
2023/10/01 07:29:36;;;;;;;20.02;9.60;;;;;;;;;;5020660;28;20040;-52
2023/10/01 07:32:08;;;;;;;22.15;9.80;;;;;;;;;;5018936;28;20129;-53
2023/10/01 07:34:42;;;;;;;18.83;9.23;;;;;;;;;;5017042;28;20196;-53
2023/10/01 07:37:23;;;;;;;23.23;10.00;;;;;;;;;;5017540;28;20590;-53
2023/10/01 07:39:49;;;;;;;25.98;10.23;;;;;;;;;;5016937;28;20048;-49
2023/10/01 07:42:17;;;;;;;22.85;9.63;;;;;;;;;;5019802;28;20044;-53
2023/10/01 07:44:44;;;;;;;27.27;10.15;;;;;;;;;;5017898;28;20469;-52
2023/10/01 07:47:28;;;;;;;23.50;9.48;;;;;;;;;;5017620;28;20501;-54
2023/10/01 07:49:56;;;;;;;20.80;9.68;;;;;;;;;;5019264;28;20029;-54
2023/10/01 07:52:23;;;;;;;21.73;8.82;;;;;;;;;;5016027;28;20120;-54
2023/10/01 07:54:49;;;;;;;20.98;9.65;;;;;;;;;;5017562;28;20037;-53
2023/10/01 07:57:28;;;;;;;20.23;9.00;;;;;;;;;;5015640;28;20417;-54
2023/10/01 08:00:00;;;;;;;22.52;9.70;;;;;;;;;;5017781;28;20047;-54
2023/10/01 08:02:28;;;;;;;23.00;9.45;;;;;;;;;;5015379;28;20044;-53
2023/10/01 08:04:58;;;;;;;20.58;9.65;;;;;;;;;;5017598;28;20449;-54
2023/10/01 08:07:31;;;;;;;24.05;10.15;;;;;;;;;;5016360;28;20349;-54
2023/10/01 08:09:59;;;;;;;;;;;;;;;;;;5017407;28;20045;-53
2023/10/01 08:12:29;;;;;;;23.42;9.27;;;;;;;;;;5017110;28;19945;-53
2023/10/01 08:17:43;;;;;;;24.73;9.77;;;;;;;;;;5013308;28;20785;-52
2023/10/01 08:20:18;;;;;;;20.35;8.90;;;;;;;;;;5014725;28;20029;-53
2023/10/01 08:23:09;;;;;;;21.30;9.38;;;;;;;;;;5017260;28;20082;-52
2023/10/01 08:25:32;;;;;;;20.98;9.57;;;;;;;;;;5020199;28;20029;-54
2023/10/01 08:30:39;;;;;;;20.77;9.60;;;;;;;;;;5006964;28;20071;-53
2023/10/01 08:33:22;;;;;;;20.15;9.02;;;;;;;;;;5017438;28;20079;-54
2023/10/01 08:35:56;;;;;;;18.83;8.60;;;;;;;;;;5018940;28;20033;-53
2023/10/01 08:38:23;;;;;;;24.92;9.43;;;;;;;;;;5015584;28;20087;-54
2023/10/01 08:40:50;;;;;;;22.33;9.23;;;;;;;;;;5017521;28;20594;-53
2023/10/01 08:43:18;;;;;;;24.00;9.73;;;;;;;;;;5014602;28;20857;-52
2023/10/01 08:45:44;;;;;;;22.90;9.40;;;;;;;;;;5017954;28;20033;-54
2023/10/01 08:48:17;;;;;;;23.17;9.18;;;;;;;;;;5018349;28;20065;-52
2023/10/01 08:50:45;;;;;;;21.00;9.02;;;;;;;;;;5016718;28;20041;-52
2023/10/01 08:53:12;;;;;;;19.92;8.93;;;;;;;;;;5015096;28;20702;-53
2023/10/01 08:58:41;;;;;;;25.48;9.13;;;;;;;;;;5014722;28;20044;-51
2023/10/01 09:01:21;;;;;;;24.55;9.23;;;;;;;;;;5017328;28;20524;-51
2023/10/01 09:03:55;;;;;;;20.65;9.00;;;;;;;;;;5015206;28;20128;-53
2023/10/01 09:06:24;;;;;;;20.55;8.90;;;;;;;;;;5014228;28;20048;-53
2023/10/01 09:08:54;;;;;;;23.48;9.43;;;;;;;;;;5017964;28;20025;-54
2023/10/01 09:11:32;;;;;;;25.65;10.88;;;;;;;;;;5016193;28;20128;-54
2023/10/01 09:13:58;;;;;;;29.80;12.18;;;;;;;;;;5015539;28;20374;-52
2023/10/01 09:16:34;;;;;;;22.75;9.25;;;;;;;;;;5014094;28;20038;-54
2023/10/01 09:19:03;;;;;;;21.10;8.60;;;;;;;;;;5017081;28;20037;-53
2023/10/01 09:21:40;;;;;;;19.13;9.23;;;;;;;;;;5019073;28;20500;-55
2023/10/01 09:24:31;;;;;;;23.88;9.05;;;;;;;;;;5017590;28;20061;-58
2023/10/01 09:27:08;;;;;;;21.98;9.27;;;;;;;;;;5015737;28;20049;-53
2023/10/01 09:29:42;;;;;;;20.42;9.23;;;;;;;;;;5013859;28;20040;-54
2023/10/01 09:32:08;;;;;;;25.17;9.60;;;;;;;;;;5015158;28;20091;-54
2023/10/01 09:34:34;;;;;;;19.58;9.07;;;;;;;;;;5017452;28;20440;-54
2023/10/01 09:37:17;;;;;;;21.27;8.88;;;;;;;;;;5021446;28;20544;-55
2023/10/01 09:39:43;;;;;;;16.73;8.90;;;;;;;;;;5014101;28;20492;-54
2023/10/01 09:42:24;;;;;;;24.25;9.40;;;;;;;;;;5017004;28;20865;-55
2023/10/01 09:44:52;;;;;;;21.98;8.80;;;;;;;;;;5016683;28;20050;-55
2023/10/01 09:47:18;;;;;;;21.13;9.18;;;;;;;;;;5016320;28;20036;-55
2023/10/01 09:49:47;;;;;;;19.55;9.15;;;;;;;;;;5017947;28;20125;-55
2023/10/01 09:52:26;;;;;;;21.80;9.25;;;;;;;;;;5018052;28;20516;-54
2023/10/01 09:54:56;;;;;;;21.77;10.07;;;;;;;;;;5018950;28;20067;-55
2023/10/01 09:57:24;;;;;;;20.63;9.23;;;;;;;;;;5016930;28;20390;-55
2023/10/01 09:59:51;;;;;;;20.80;9.23;;;;;;;;;;5018325;28;20091;-55
2023/10/01 10:02:27;;;;;;;23.58;9.05;;;;;;;;;;5018037;28;20036;-54
2023/10/01 10:04:54;;;;;;;24.88;10.07;;;;;;;;;;5020521;28;20059;-55
2023/10/01 10:07:24;;;;;;;19.38;8.80;;;;;;;;;;5017663;28;20512;-55
2023/10/01 10:09:54;;;;;;;22.10;9.25;;;;;;;;;;5020664;28;20052;-55
2023/10/01 10:12:33;;;;;;;23.00;10.35;;;;;;;;;;5011814;28;20174;-54
2023/10/01 10:15:00;;;;;;;25.38;10.00;;;;;;;;;;5019449;28;20551;-55
2023/10/01 10:17:27;;;;;;;20.75;9.00;;;;;;;;;;5018354;28;20077;-56
2023/10/01 10:20:16;;;;;;;23.17;9.73;;;;;;;;;;5017830;28;20041;-54
2023/10/01 10:23:02;;;;;;;24.95;9.77;;;;;;;;;;5016901;28;20879;-57
2023/10/01 10:25:28;;;;;;;20.48;9.23;;;;;;;;;;5018779;28;20113;-56
2023/10/01 10:27:56;;;;;;;20.83;9.25;;;;;;;;;;5020331;28;20171;-55
2023/10/01 10:30:22;;;;;;;19.38;9.32;;;;;;;;;;5006732;28;20430;-56
2023/10/01 10:33:07;;;;;;;20.27;9.52;;;;;;;;;;5018486;28;20034;-56
2023/10/01 10:35:39;;;;;;;22.67;9.75;;;;;;;;;;5016122;28;20036;-55
2023/10/01 10:38:09;;;;;;;26.83;10.23;;;;;;;;;;5022318;28;20029;-55
2023/10/01 10:41:05;;;;;;;20.73;10.07;;;;;;;;;;5020957;28;20482;-55
2023/10/01 10:43:33;;;;;;;21.63;8.88;;;;;;;;;;5017145;28;20606;-56
2023/10/01 10:45:59;;;;;;;23.70;9.90;;;;;;;;;;5022554;28;20691;-56
2023/10/01 10:48:45;;;;;;;19.98;9.40;;;;;;;;;;5019624;28;20448;-55
2023/10/01 10:51:18;;;;;;;23.00;9.57;;;;;;;;;;5016011;28;20037;-55
2023/10/01 10:53:45;;;;;;;23.50;9.77;;;;;;;;;;5018424;28;20033;-55
2023/10/01 10:56:15;;;;;;;22.02;9.88;;;;;;;;;;5018570;28;20697;-53
2023/10/01 10:58:44;;;;;;;23.15;10.45;;;;;;;;;;5016779;28;20033;-56
2023/10/01 11:01:20;;;;;;;21.05;9.30;;;;;;;;;;5017495;28;20079;-55
2023/10/01 11:03:49;;;;;;;22.50;9.95;;;;;;;;;;5017473;28;20417;-55
2023/10/01 11:06:19;;;;;;;24.08;10.20;;;;;;;;;;5017683;28;20083;-56
2023/10/01 11:08:51;;;;;;;26.27;10.70;;;;;;;;;;5021011;28;20393;-57
2023/10/01 11:11:39;;;;;;;22.70;9.73;;;;;;;;;;5009372;28;20041;-56
2023/10/01 11:14:11;;;;;;;26.80;9.90;;;;;;;;;;5018167;28;20091;-56
2023/10/01 11:16:40;;;;;;;22.00;9.98;;;;;;;;;;5005528;28;20057;-56
2023/10/01 11:19:13;;;;;;;25.38;10.07;;;;;;;;;;5016274;28;20120;-55
2023/10/01 11:21:55;;;;;;;21.70;9.55;;;;;;;;;;5015642;28;20034;-56
2023/10/01 11:24:41;;;;;;;21.17;9.73;;;;;;;;;;5018709;28;20072;-56
2023/10/01 11:30:27;;;;;;;19.67;8.95;;;;;;;;;;4956703;28;20118;-55
2023/10/01 11:35:33;;;;;;;25.98;9.77;;;;;;;;;;5019824;28;20042;-56
2023/10/01 11:38:21;;;;;;;21.13;9.73;;;;;;;;;;5019183;28;20064;-57
2023/10/01 11:41:07;;;;;;;21.27;9.02;;;;;;;;;;5021612;28;20484;-57
2023/10/01 11:44:01;;;;;;;20.90;9.43;;;;;;;;;;5019844;28;20382;-56
2023/10/01 11:49:15;;;;;;;23.77;9.60;;;;;;;;;;5017508;28;20048;-54
2023/10/01 11:51:45;;;;;;;23.05;9.88;;;;;;;;;;5032864;28;20076;-56
2023/10/01 11:54:18;;;;;;;21.73;9.80;;;;;;;;;;5016115;28;20033;-56
2023/10/01 11:56:44;;;;;;;23.08;9.80;;;;;;;;;;5020122;28;20492;-55
2023/10/01 11:59:18;;;;;;;25.70;10.02;;;;;;;;;;5016224;28;20088;-56
2023/10/01 12:01:47;;;;;;;;;;;;;;;;;;5019192;28;20068;-55
2023/10/01 12:07:15;;;;;;;24.23;9.90;;;;;;;;;;5018019;28;20511;-57
2023/10/01 12:09:43;;;;;;;21.52;9.98;;;;;;;;;;5019747;28;20053;-56
2023/10/01 12:12:09;;;;;;;25.58;10.80;;;;;;;;;;5017525;28;20041;-55
2023/10/01 12:14:52;;;;;;;24.92;10.63;;;;;;;;;;5021431;28;20045;-56
2023/10/01 12:17:23;;;;;;;;;;;;;;;;;;5020426;28;20045;-57
2023/10/01 12:19:50;;;;;;;27.70;11.05;;;;;;;;;;5020446;28;20479;-57
2023/10/01 12:22:16;;;;;;;25.42;10.88;;;;;;;;;;5019442;28;20527;-55
2023/10/01 12:24:49;;;;;;;25.13;11.35;;;;;;;;;;5020896;28;20045;-57
2023/10/01 12:27:37;;;;;;;29.13;11.07;;;;;;;;;;5033269;28;20045;-56
2023/10/01 12:30:01;;;;;;;28.23;11.10;;;;;;;;;;5019815;28;21237;-56
2023/10/01 12:32:41;;;;;;;25.70;11.07;;;;;;;;;;5013008;28;20069;-55
2023/10/01 12:35:18;;;;;;;24.05;11.45;;;;;;;;;;4998347;28;20690;-56
2023/10/01 12:37:45;;;;;;;26.77;11.25;;;;;;;;;;4997786;28;20470;-54
2023/10/01 12:40:16;;;;;;;26.88;10.65;;;;;;;;;;4997098;28;20043;-56
2023/10/01 12:42:56;;;;;;;24.42;10.63;;;;;;;;;;4999824;28;20038;-56
2023/10/01 12:45:27;;;;;;;22.67;10.95;;;;;;;;;;5002539;28;22483;-56
2023/10/01 12:47:53;;;;;;;24.77;11.25;;;;;;;;;;4999921;28;20784;-56
2023/10/01 12:50:27;;;;;;;25.35;10.98;;;;;;;;;;4997909;28;20042;-56
2023/10/01 12:55:44;;;;;;;25.13;11.32;;;;;;;;;;5000259;28;20053;-57
2023/10/01 12:58:10;;;;;;;23.83;10.93;;;;;;;;;;4999367;28;20049;-56
2023/10/01 13:00:45;;;;;;;25.80;11.57;;;;;;;;;;4999347;28;20038;-55
2023/10/01 13:03:17;;;;;;;23.98;11.48;;;;;;;;;;5000490;28;20030;-57
2023/10/01 13:05:44;;;;;;;27.00;11.90;;;;;;;;;;5012333;28;20534;-55
2023/10/01 13:08:27;;;;;;;22.92;10.90;;;;;;;;;;5013848;28;20452;-53
2023/10/01 13:10:59;;;;;;;23.33;11.30;;;;;;;;;;5019660;28;20025;-56
2023/10/01 13:13:31;;;;;;;25.15;11.20;;;;;;;;;;5016892;28;20595;-56
2023/10/01 13:16:00;;;;;;;25.30;11.60;;;;;;;;;;5004843;28;20084;-56
2023/10/01 13:18:31;;;;;;;24.30;10.80;;;;;;;;;;4997601;28;20490;-56
2023/10/01 13:23:28;;;;;;;23.80;11.73;;;;;;;;;;4998554;28;20733;-56
2023/10/01 13:26:14;;;;;;;23.65;11.35;;;;;;;;;;4997806;28;20113;-57
2023/10/01 13:28:45;;;;;;;22.95;11.10;;;;;;;;;;5018942;28;20033;-55
2023/10/01 13:31:35;;;;;;;23.20;10.85;;;;;;;;;;5031493;28;20119;-55
2023/10/01 13:34:12;;;;;;;26.58;11.82;;;;;;;;;;5018978;28;20100;-55
2023/10/01 13:37:11;;;;;;;22.80;10.85;;;;;;;;;;5010932;28;20265;-56
2023/10/01 14:09:48;;;;;;;0.00;0.00;;;;;;;;;;5019040;28;20051;-56
2023/10/01 14:12:15;;;;;;;0.00;0.00;;;;;;;;;;5018730;28;20460;-56
2023/10/01 14:14:43;;;;;;;5.40;2.85;;;;;;;;;;5020548;28;20149;-56
2023/10/01 14:17:13;;;;;;;25.08;12.60;;;;;;;;;;5017073;28;20041;-56
2023/10/01 14:19:42;;;;;;;26.58;13.15;;;;;;;;;;5012054;28;20120;-56
2023/10/01 14:22:19;;;;;;;26.90;13.30;;;;;;;;;;5017619;28;20151;-56
2023/10/01 14:24:45;;;;;;;27.88;13.32;;;;;;;;;;5017641;28;20037;-56
2023/10/01 14:27:24;;;;;;;25.98;12.35;;;;;;;;;;5016321;28;20986;-55
2023/10/01 14:30:00;;;;;;;31.35;13.57;;;;;;;;;;5010890;28;20034;-57
2023/10/01 14:32:34;;;;;;;26.85;13.40;;;;;;;;;;5018063;28;20064;-55
2023/10/01 14:35:00;;;;;;;28.25;13.15;;;;;;;;;;5019488;28;20090;-57
2023/10/01 14:37:28;;;;;;;26.55;13.10;;;;;;;;;;4998003;28;20606;-57
2023/10/01 14:39:54;;;;;;;27.38;13.00;;;;;;;;;;5001913;28;20424;-57
2023/10/01 14:42:20;;;;;;;24.48;12.73;;;;;;;;;;5001095;28;20041;-57
2023/10/01 14:44:46;;;;;;;23.98;11.98;;;;;;;;;;5003221;28;20026;-55
2023/10/01 14:47:17;;;;;;;0.00;0.00;;;;;;;;;;4998564;28;20034;-56
2023/10/01 14:49:43;;;;;;;0.00;0.00;;;;;;;;;;5002372;28;20045;-55
2023/10/01 14:52:22;;;;;;;0.00;0.00;;;;;;;;;;4992386;28;20131;-57
2023/10/01 14:54:48;;;;;;;0.00;0.00;;;;;;;;;;5000743;28;20049;-57
2023/10/01 14:57:16;;;;;;;0.00;0.00;;;;;;;;;;4994391;28;20038;-56
2023/10/01 14:59:43;;;;;;;0.00;0.00;;;;;;;;;;4994365;28;20096;-55
2023/10/01 15:02:15;;;;;;;0.00;0.00;;;;;;;;;;4990467;28;20037;-56
2023/10/01 15:04:41;;;;;;;0.00;0.00;;;;;;;;;;5001377;28;20377;-55
2023/10/01 15:07:07;;;;;;;0.00;0.00;;;;;;;;;;4997584;28;20481;-57
2023/10/01 15:09:37;;;;;;;0.00;0.00;;;;;;;;;;4999461;28;20216;-57
2023/10/01 15:12:04;;;;;;;0.00;0.00;;;;;;;;;;4998869;28;20042;-56
2023/10/01 15:14:33;;;;;;;0.00;0.00;;;;;;;;;;4998242;28;20030;-58
2023/10/01 15:17:02;;;;;;;0.00;0.00;;;;;;;;;;4999445;28;20046;-56
2023/10/01 15:19:30;;;;;;;0.00;0.00;;;;;;;;;;4993730;28;20123;-57
2023/10/01 15:22:03;;;;;;;0.00;0.00;;;;;;;;;;4997656;28;20041;-57
2023/10/01 15:24:34;;;;;;;0.00;0.00;;;;;;;;;;4997839;28;20038;-56
2023/10/01 15:27:01;;;;;;;0.00;0.00;;;;;;;;;;4997703;28;20638;-56
2023/10/01 15:29:31;;;;;;;0.00;0.00;;;;;;;;;;4998326;28;20056;-55
2023/10/01 15:31:57;;;;;;;0.00;0.00;;;;;;;;;;5012966;28;20088;-56
2023/10/01 15:34:23;;;;;;;0.00;0.00;;;;;;;;;;5016344;28;20042;-56
2023/10/01 15:36:49;;;;;;;0.00;0.00;;;;;;;;;;5017702;28;20164;-57
2023/10/01 15:42:22;;;;;;;0.00;0.00;;;;;;;;;;5013122;28;20119;-56
2023/10/01 15:44:50;;;;;;;0.00;0.00;;;;;;;;;;5016635;28;20912;-56
2023/10/01 15:48:07;;;;;;;0.00;0.00;;;;;;;;;;5016985;28;20061;-57
2023/10/01 15:50:07;;;;;;;0.00;0.00;;;;;;;;;;5008905;28;20087;-56
2023/10/01 15:52:49;;;;;;;0.00;0.00;;;;;;;;;;5019410;28;20037;-57
2023/10/01 15:55:18;;;;;;;0.00;0.00;;;;;;;;;;5019615;28;20281;-57
2023/10/01 15:57:53;;;;;;;0.00;0.00;;;;;;;;;;5018387;28;20509;-57
2023/10/01 16:00:26;;;;;;;0.00;0.00;;;;;;;;;;5019279;28;20489;-58
2023/10/01 16:03:02;;;;;;;;;;;;;;;;;;5020690;28;20053;-57
2023/10/01 16:05:29;;;;;;;0.00;0.00;;;;;;;;;;5018739;28;20358;-57